Aeroporto :
LOGIN :

Iscrizione | Disclaimer

   EN    FR    IT 

 










Sommario :    VFR   VFR Marginale   IFR   IFR Intensivo   IFR Molto Intensivo
Visibilità : 
Base nubi : 
>= 8 km
>= 3000ft
5 / 8 km
1000 / 3000 ft
1500m / 5 km
500 / 1000 ft
800 / 1500m
200 / 500 ft
< 800m
< 200 ft
Simboli :   Temporali  Nebbia  Neve Forte  Precipitazioni Forti  Vento > 20 kt
SIGMETs :   Varie  Temporali  Ghiacco  Turbolenza  Onda orograficha  Ceneri Vulcaniche






- Altitudine del aeroporto : 502 ft
- Codice IATA : ORK


EICK - Cork

ULTIMO METAR :
  • 210900Z 11007KT 9999 -SHRA SCT014 BKN025 BKN037 08/07 Q0994 NOSIG

METARs OBSOLETI :
  • 210830Z 11005KT 9999 FEW014 BKN037 BKN080 08/07 Q0994 NOSIG
  • 210800Z 11005KT 9999 FEW012 SCT025 BKN046 08/07 Q0994 NOSIG
  • 210730Z 11005KT 9999 SCT012 BKN025 BKN110 07/06 Q0994 NOSIG
  • 210700Z 12003KT 9999 SCT012 SCT018 BKN110 07/06 Q0994 NOSIG
  • 210630Z 16005KT 120V200 9999 SCT011 BKN120 07/06 Q0994 NOSIG
  • 210600Z 12006KT 9999 FEW012 BKN110 07/06 Q0994 NOSIG

TAF TAF EICK
Valido dal 21 a 06 ore il 22 a 06 ore UTC


210500Z 2106/2206 12007KT 9999 FEW012 BKN030
PROB30
TEMPO 2106/2109 5000 -SHRA BKN012 SCT018CB
TEMPO 2109/2117 5000 SHRA BKN010 SCT018CB
BECMG 2111/2113 09008KT
BECMG 2116/2118 06010KT
TEMPO 2117/2206 3000 -SHRA BR BKN010 SCT018CB
PROB30
TEMPO 2119/2202 0700 FG BKN002
BECMG 2121/2123 VRB03KT
BECMG 2203/2205 03008KT



MetMap, La meteo Aeronautica in un colpo d'occhio ! - Copyright ORBIFLY Dicembre 2007 - Disclaimer

ORBIFLY MET'MAP TEAM :

Programmazione e sviluppo : Alexandra Zaïnal
Concezione e sviluppo : Baudouin d'Aumeries
Co-Programmazione e sviluppo : Marc-Olivier Méhu
Supporto tecnico e logistico : Manuel Goepfert
Aiuto per la traduzione : Arnaldo La Scala

Contatto : metmap@orbifly.com




FONTI E CREDITI :

   NOAA